sensor_id;sensor_type;location;lat;lon;timestamp;P1;durP1;ratioP1;P2;durP2;ratioP2
51566;SDS011;37657;53.182;5.638;2023-04-30T00:00:28;11.23;;;5.65;;
51566;SDS011;37657;53.182;5.638;2023-04-30T00:02:53;8.75;;;4.70;;
51566;SDS011;37657;53.182;5.638;2023-04-30T00:05:19;6.50;;;4.25;;
51566;SDS011;37657;53.182;5.638;2023-04-30T00:07:45;7.75;;;4.65;;
51566;SDS011;37657;53.182;5.638;2023-04-30T00:10:10;7.15;;;4.40;;
51566;SDS011;37657;53.182;5.638;2023-04-30T00:12:36;5.75;;;4.03;;
51566;SDS011;37657;53.182;5.638;2023-04-30T00:15:02;11.63;;;5.43;;
51566;SDS011;37657;53.182;5.638;2023-04-30T00:17:28;7.85;;;4.82;;
51566;SDS011;37657;53.182;5.638;2023-04-30T00:19:54;6.15;;;4.65;;
51566;SDS011;37657;53.182;5.638;2023-04-30T00:22:19;10.80;;;5.25;;
51566;SDS011;37657;53.182;5.638;2023-04-30T00:24:45;15.55;;;4.95;;
51566;SDS011;37657;53.182;5.638;2023-04-30T00:27:10;11.30;;;4.45;;
51566;SDS011;37657;53.182;5.638;2023-04-30T00:29:36;6.85;;;4.80;;
51566;SDS011;37657;53.182;5.638;2023-04-30T00:32:02;7.60;;;5.10;;
51566;SDS011;37657;53.182;5.638;2023-04-30T00:34:27;7.00;;;4.60;;
51566;SDS011;37657;53.182;5.638;2023-04-30T00:36:53;5.95;;;3.63;;
51566;SDS011;37657;53.182;5.638;2023-04-30T00:39:18;9.82;;;4.85;;
51566;SDS011;37657;53.182;5.638;2023-04-30T00:41:44;5.38;;;3.40;;
51566;SDS011;37657;53.182;5.638;2023-04-30T00:44:10;6.57;;;4.20;;
51566;SDS011;37657;53.182;5.638;2023-04-30T00:46:35;5.72;;;4.03;;
51566;SDS011;37657;53.182;5.638;2023-04-30T00:49:01;6.28;;;4.13;;
51566;SDS011;37657;53.182;5.638;2023-04-30T00:51:29;5.38;;;3.45;;
51566;SDS011;37657;53.182;5.638;2023-04-30T00:53:56;6.85;;;4.40;;
51566;SDS011;37657;53.182;5.638;2023-04-30T00:56:24;8.57;;;4.93;;
51566;SDS011;37657;53.182;5.638;2023-04-30T00:58:50;21.92;;;4.75;;
51566;SDS011;37657;53.182;5.638;2023-04-30T01:01:21;7.70;;;4.10;;
51566;SDS011;37657;53.182;5.638;2023-04-30T01:03:48;6.93;;;4.20;;
51566;SDS011;37657;53.182;5.638;2023-04-30T01:06:14;5.15;;;3.67;;
51566;SDS011;37657;53.182;5.638;2023-04-30T01:08:40;6.40;;;3.92;;
51566;SDS011;37657;53.182;5.638;2023-04-30T01:11:16;6.28;;;4.55;;
51566;SDS011;37657;53.182;5.638;2023-04-30T01:14:03;6.75;;;3.95;;
51566;SDS011;37657;53.182;5.638;2023-04-30T01:16:35;5.95;;;3.90;;
51566;SDS011;37657;53.182;5.638;2023-04-30T01:19:49;6.28;;;4.90;;
51566;SDS011;37657;53.182;5.638;2023-04-30T01:22:02;8.15;;;4.22;;
51566;SDS011;37657;53.182;5.638;2023-04-30T01:30:25;9.00;;;4.28;;
51566;SDS011;37657;53.182;5.638;2023-04-30T01:32:51;7.15;;;4.00;;
51566;SDS011;37657;53.182;5.638;2023-04-30T01:35:17;6.40;;;3.78;;
51566;SDS011;37657;53.182;5.638;2023-04-30T01:41:32;8.38;;;3.95;;
51566;SDS011;37657;53.182;5.638;2023-04-30T01:43:54;6.93;;;3.20;;
51566;SDS011;37657;53.182;5.638;2023-04-30T01:46:34;7.20;;;3.97;;
51566;SDS011;37657;53.182;5.638;2023-04-30T01:51:38;8.67;;;4.87;;
51566;SDS011;37657;53.182;5.638;2023-04-30T01:54:16;8.80;;;4.70;;
51566;SDS011;37657;53.182;5.638;2023-04-30T01:57:10;10.70;;;4.85;;
51566;SDS011;37657;53.182;5.638;2023-04-30T01:59:40;8.02;;;4.50;;
51566;SDS011;37657;53.182;5.638;2023-04-30T02:02:07;8.85;;;5.10;;
51566;SDS011;37657;53.182;5.638;2023-04-30T02:04:32;8.00;;;4.45;;
51566;SDS011;37657;53.182;5.638;2023-04-30T02:06:58;5.53;;;4.03;;
51566;SDS011;37657;53.182;5.638;2023-04-30T02:09:25;5.53;;;4.00;;
51566;SDS011;37657;53.182;5.638;2023-04-30T02:11:50;9.18;;;4.80;;
51566;SDS011;37657;53.182;5.638;2023-04-30T02:14:16;8.13;;;4.32;;
51566;SDS011;37657;53.182;5.638;2023-04-30T02:16:41;4.05;;;3.35;;
51566;SDS011;37657;53.182;5.638;2023-04-30T02:19:07;8.98;;;4.75;;
51566;SDS011;37657;53.182;5.638;2023-04-30T02:21:33;7.30;;;5.38;;
51566;SDS011;37657;53.182;5.638;2023-04-30T02:23:58;4.88;;;4.20;;
51566;SDS011;37657;53.182;5.638;2023-04-30T02:26:24;8.10;;;4.30;;
51566;SDS011;37657;53.182;5.638;2023-04-30T02:28:50;18.88;;;6.93;;
51566;SDS011;37657;53.182;5.638;2023-04-30T02:31:16;9.73;;;6.32;;
51566;SDS011;37657;53.182;5.638;2023-04-30T02:33:41;17.15;;;6.75;;
51566;SDS011;37657;53.182;5.638;2023-04-30T02:36:07;9.70;;;5.00;;
51566;SDS011;37657;53.182;5.638;2023-04-30T02:38:32;7.25;;;5.28;;
51566;SDS011;37657;53.182;5.638;2023-04-30T02:40:58;15.20;;;6.15;;
51566;SDS011;37657;53.182;5.638;2023-04-30T02:43:23;15.02;;;7.68;;
51566;SDS011;37657;53.182;5.638;2023-04-30T02:45:49;6.05;;;4.70;;
51566;SDS011;37657;53.182;5.638;2023-04-30T02:48:15;6.68;;;5.43;;
51566;SDS011;37657;53.182;5.638;2023-04-30T02:50:41;11.55;;;6.50;;
51566;SDS011;37657;53.182;5.638;2023-04-30T02:53:06;8.60;;;5.75;;
51566;SDS011;37657;53.182;5.638;2023-04-30T02:55:32;6.57;;;5.68;;
51566;SDS011;37657;53.182;5.638;2023-04-30T02:57:57;10.32;;;5.43;;
51566;SDS011;37657;53.182;5.638;2023-04-30T03:00:23;7.78;;;4.78;;
51566;SDS011;37657;53.182;5.638;2023-04-30T03:02:49;9.07;;;5.60;;
51566;SDS011;37657;53.182;5.638;2023-04-30T03:05:14;6.20;;;5.25;;
51566;SDS011;37657;53.182;5.638;2023-04-30T03:07:40;6.93;;;5.28;;
51566;SDS011;37657;53.182;5.638;2023-04-30T03:10:06;10.40;;;5.20;;
51566;SDS011;37657;53.182;5.638;2023-04-30T03:12:32;8.07;;;5.03;;
51566;SDS011;37657;53.182;5.638;2023-04-30T03:14:58;6.88;;;5.32;;
51566;SDS011;37657;53.182;5.638;2023-04-30T03:17:23;7.72;;;4.70;;
51566;SDS011;37657;53.182;5.638;2023-04-30T03:19:49;12.43;;;5.50;;
51566;SDS011;37657;53.182;5.638;2023-04-30T03:22:15;8.48;;;5.90;;
51566;SDS011;37657;53.182;5.638;2023-04-30T03:24:43;8.13;;;5.93;;
51566;SDS011;37657;53.182;5.638;2023-04-30T03:27:09;9.02;;;5.72;;
51566;SDS011;37657;53.182;5.638;2023-04-30T03:29:35;6.97;;;5.60;;
51566;SDS011;37657;53.182;5.638;2023-04-30T03:32:00;8.57;;;6.45;;
51566;SDS011;37657;53.182;5.638;2023-04-30T03:34:26;9.93;;;7.00;;
51566;SDS011;37657;53.182;5.638;2023-04-30T03:36:51;12.10;;;6.55;;
51566;SDS011;37657;53.182;5.638;2023-04-30T03:39:17;10.23;;;7.68;;
51566;SDS011;37657;53.182;5.638;2023-04-30T03:41:42;11.20;;;7.70;;
51566;SDS011;37657;53.182;5.638;2023-04-30T03:44:08;7.20;;;5.50;;
51566;SDS011;37657;53.182;5.638;2023-04-30T03:46:39;12.10;;;7.50;;
51566;SDS011;37657;53.182;5.638;2023-04-30T03:49:07;10.00;;;6.63;;
51566;SDS011;37657;53.182;5.638;2023-04-30T03:51:33;6.93;;;5.15;;
51566;SDS011;37657;53.182;5.638;2023-04-30T03:54:04;6.75;;;5.85;;
51566;SDS011;37657;53.182;5.638;2023-04-30T03:56:30;10.18;;;5.95;;
51566;SDS011;37657;53.182;5.638;2023-04-30T03:58:56;7.25;;;5.03;;
51566;SDS011;37657;53.182;5.638;2023-04-30T04:01:22;7.88;;;6.18;;
51566;SDS011;37657;53.182;5.638;2023-04-30T04:03:48;9.07;;;5.93;;
51566;SDS011;37657;53.182;5.638;2023-04-30T04:06:13;6.28;;;5.38;;
51566;SDS011;37657;53.182;5.638;2023-04-30T04:08:39;5.28;;;3.95;;
51566;SDS011;37657;53.182;5.638;2023-04-30T04:11:07;6.20;;;4.35;;
51566;SDS011;37657;53.182;5.638;2023-04-30T04:13:33;10.60;;;6.70;;
51566;SDS011;37657;53.182;5.638;2023-04-30T04:15:59;6.82;;;4.22;;
51566;SDS011;37657;53.182;5.638;2023-04-30T04:18:24;8.35;;;4.10;;
51566;SDS011;37657;53.182;5.638;2023-04-30T04:20:50;11.98;;;5.40;;
51566;SDS011;37657;53.182;5.638;2023-04-30T04:23:15;12.02;;;5.07;;
51566;SDS011;37657;53.182;5.638;2023-04-30T04:25:41;12.93;;;4.82;;
51566;SDS011;37657;53.182;5.638;2023-04-30T04:28:08;7.05;;;4.05;;
51566;SDS011;37657;53.182;5.638;2023-04-30T04:30:34;6.95;;;4.00;;
51566;SDS011;37657;53.182;5.638;2023-04-30T04:33:00;6.40;;;4.25;;
51566;SDS011;37657;53.182;5.638;2023-04-30T04:35:26;5.20;;;4.55;;
51566;SDS011;37657;53.182;5.638;2023-04-30T04:37:51;7.68;;;4.05;;
51566;SDS011;37657;53.182;5.638;2023-04-30T04:40:17;6.65;;;3.85;;
51566;SDS011;37657;53.182;5.638;2023-04-30T04:42:43;5.47;;;4.10;;
51566;SDS011;37657;53.182;5.638;2023-04-30T04:45:08;3.97;;;3.40;;
51566;SDS011;37657;53.182;5.638;2023-04-30T04:47:35;2.85;;;2.50;;
51566;SDS011;37657;53.182;5.638;2023-04-30T04:50:01;6.72;;;4.22;;
51566;SDS011;37657;53.182;5.638;2023-04-30T04:52:26;6.10;;;3.72;;
51566;SDS011;37657;53.182;5.638;2023-04-30T04:54:52;3.72;;;2.95;;
51566;SDS011;37657;53.182;5.638;2023-04-30T04:57:17;4.57;;;2.80;;
51566;SDS011;37657;53.182;5.638;2023-04-30T04:59:43;4.90;;;3.50;;
51566;SDS011;37657;53.182;5.638;2023-04-30T05:02:09;6.32;;;3.30;;
51566;SDS011;37657;53.182;5.638;2023-04-30T05:04:34;7.03;;;2.85;;
51566;SDS011;37657;53.182;5.638;2023-04-30T05:07:00;5.03;;;3.45;;
51566;SDS011;37657;53.182;5.638;2023-04-30T05:09:26;4.00;;;3.25;;
51566;SDS011;37657;53.182;5.638;2023-04-30T05:11:51;6.53;;;4.38;;
51566;SDS011;37657;53.182;5.638;2023-04-30T05:14:17;5.85;;;3.42;;
51566;SDS011;37657;53.182;5.638;2023-04-30T05:16:42;6.50;;;4.32;;
51566;SDS011;37657;53.182;5.638;2023-04-30T05:19:08;5.40;;;4.38;;
51566;SDS011;37657;53.182;5.638;2023-04-30T05:21:33;10.40;;;5.97;;
51566;SDS011;37657;53.182;5.638;2023-04-30T05:23:59;7.68;;;4.55;;
51566;SDS011;37657;53.182;5.638;2023-04-30T05:26:25;7.70;;;4.30;;
51566;SDS011;37657;53.182;5.638;2023-04-30T05:28:51;7.47;;;4.60;;
51566;SDS011;37657;53.182;5.638;2023-04-30T05:31:17;10.23;;;4.45;;
51566;SDS011;37657;53.182;5.638;2023-04-30T05:33:42;5.43;;;4.28;;
51566;SDS011;37657;53.182;5.638;2023-04-30T05:36:09;8.50;;;4.85;;
51566;SDS011;37657;53.182;5.638;2023-04-30T05:38:35;14.27;;;5.55;;
51566;SDS011;37657;53.182;5.638;2023-04-30T05:41:00;8.20;;;5.78;;
51566;SDS011;37657;53.182;5.638;2023-04-30T05:43:26;10.25;;;5.43;;
51566;SDS011;37657;53.182;5.638;2023-04-30T05:45:51;6.53;;;5.20;;
51566;SDS011;37657;53.182;5.638;2023-04-30T05:48:17;8.15;;;5.63;;
51566;SDS011;37657;53.182;5.638;2023-04-30T05:50:43;10.73;;;7.10;;
51566;SDS011;37657;53.182;5.638;2023-04-30T05:53:08;6.70;;;5.05;;
51566;SDS011;37657;53.182;5.638;2023-04-30T05:55:34;17.55;;;5.95;;
51566;SDS011;37657;53.182;5.638;2023-04-30T05:58:00;9.65;;;6.30;;
51566;SDS011;37657;53.182;5.638;2023-04-30T06:00:25;6.00;;;5.03;;
51566;SDS011;37657;53.182;5.638;2023-04-30T06:02:51;7.45;;;4.47;;
51566;SDS011;37657;53.182;5.638;2023-04-30T06:05:17;8.43;;;4.72;;
51566;SDS011;37657;53.182;5.638;2023-04-30T06:07:43;9.40;;;4.82;;
51566;SDS011;37657;53.182;5.638;2023-04-30T06:10:08;12.68;;;5.60;;
51566;SDS011;37657;53.182;5.638;2023-04-30T06:12:34;10.45;;;6.05;;
51566;SDS011;37657;53.182;5.638;2023-04-30T06:15:00;9.20;;;6.15;;
51566;SDS011;37657;53.182;5.638;2023-04-30T06:17:26;6.72;;;4.60;;
51566;SDS011;37657;53.182;5.638;2023-04-30T06:19:51;10.23;;;4.90;;
51566;SDS011;37657;53.182;5.638;2023-04-30T06:22:17;8.45;;;5.00;;
51566;SDS011;37657;53.182;5.638;2023-04-30T06:24:42;7.80;;;5.40;;
51566;SDS011;37657;53.182;5.638;2023-04-30T06:27:08;7.55;;;4.57;;
51566;SDS011;37657;53.182;5.638;2023-04-30T06:29:33;15.57;;;5.45;;
51566;SDS011;37657;53.182;5.638;2023-04-30T06:31:59;9.13;;;4.88;;
51566;SDS011;37657;53.182;5.638;2023-04-30T06:34:25;9.80;;;5.45;;
51566;SDS011;37657;53.182;5.638;2023-04-30T06:36:50;7.75;;;4.45;;
51566;SDS011;37657;53.182;5.638;2023-04-30T06:39:16;7.43;;;5.45;;
51566;SDS011;37657;53.182;5.638;2023-04-30T06:41:42;10.52;;;6.32;;
51566;SDS011;37657;53.182;5.638;2023-04-30T06:44:07;9.57;;;5.50;;
51566;SDS011;37657;53.182;5.638;2023-04-30T06:46:33;8.18;;;5.43;;
51566;SDS011;37657;53.182;5.638;2023-04-30T06:48:59;7.68;;;5.28;;
51566;SDS011;37657;53.182;5.638;2023-04-30T06:51:24;9.02;;;4.43;;
51566;SDS011;37657;53.182;5.638;2023-04-30T06:53:50;8.10;;;5.65;;
51566;SDS011;37657;53.182;5.638;2023-04-30T06:56:16;10.18;;;5.45;;
51566;SDS011;37657;53.182;5.638;2023-04-30T06:58:42;17.70;;;6.60;;
51566;SDS011;37657;53.182;5.638;2023-04-30T07:01:07;10.63;;;5.32;;
51566;SDS011;37657;53.182;5.638;2023-04-30T07:03:33;8.23;;;5.40;;
51566;SDS011;37657;53.182;5.638;2023-04-30T07:05:59;15.65;;;5.72;;
51566;SDS011;37657;53.182;5.638;2023-04-30T07:08:25;7.85;;;4.47;;
51566;SDS011;37657;53.182;5.638;2023-04-30T07:10:50;8.85;;;4.65;;
51566;SDS011;37657;53.182;5.638;2023-04-30T07:13:16;5.53;;;3.90;;
51566;SDS011;37657;53.182;5.638;2023-04-30T07:15:42;6.68;;;4.47;;
51566;SDS011;37657;53.182;5.638;2023-04-30T07:18:08;15.10;;;5.82;;
51566;SDS011;37657;53.182;5.638;2023-04-30T07:20:34;6.03;;;3.75;;
51566;SDS011;37657;53.182;5.638;2023-04-30T07:22:59;8.60;;;4.50;;
51566;SDS011;37657;53.182;5.638;2023-04-30T07:25:25;7.85;;;4.25;;
51566;SDS011;37657;53.182;5.638;2023-04-30T07:27:51;5.43;;;4.80;;
51566;SDS011;37657;53.182;5.638;2023-04-30T07:30:19;17.30;;;4.95;;
51566;SDS011;37657;53.182;5.638;2023-04-30T07:32:46;6.65;;;3.83;;
51566;SDS011;37657;53.182;5.638;2023-04-30T07:35:12;9.93;;;5.45;;
51566;SDS011;37657;53.182;5.638;2023-04-30T07:37:38;7.85;;;5.05;;
51566;SDS011;37657;53.182;5.638;2023-04-30T07:40:04;6.85;;;4.50;;
51566;SDS011;37657;53.182;5.638;2023-04-30T07:42:31;11.00;;;5.28;;
51566;SDS011;37657;53.182;5.638;2023-04-30T07:44:57;6.40;;;4.30;;
51566;SDS011;37657;53.182;5.638;2023-04-30T07:47:23;9.45;;;3.90;;
51566;SDS011;37657;53.182;5.638;2023-04-30T07:49:49;7.82;;;3.42;;
51566;SDS011;37657;53.182;5.638;2023-04-30T07:52:15;5.50;;;3.17;;
51566;SDS011;37657;53.182;5.638;2023-04-30T07:54:41;8.13;;;4.20;;
51566;SDS011;37657;53.182;5.638;2023-04-30T07:57:07;5.60;;;3.65;;
51566;SDS011;37657;53.182;5.638;2023-04-30T07:59:32;8.40;;;3.85;;
51566;SDS011;37657;53.182;5.638;2023-04-30T08:01:58;5.47;;;3.25;;
51566;SDS011;37657;53.182;5.638;2023-04-30T08:04:24;7.47;;;4.07;;
51566;SDS011;37657;53.182;5.638;2023-04-30T08:06:49;5.15;;;3.53;;
51566;SDS011;37657;53.182;5.638;2023-04-30T08:09:15;8.90;;;4.03;;
51566;SDS011;37657;53.182;5.638;2023-04-30T08:11:41;6.60;;;4.65;;
51566;SDS011;37657;53.182;5.638;2023-04-30T08:14:06;8.27;;;4.05;;
51566;SDS011;37657;53.182;5.638;2023-04-30T08:16:32;10.73;;;3.90;;
51566;SDS011;37657;53.182;5.638;2023-04-30T08:18:57;5.43;;;3.55;;
51566;SDS011;37657;53.182;5.638;2023-04-30T08:21:24;6.28;;;3.45;;
51566;SDS011;37657;53.182;5.638;2023-04-30T08:23:52;23.80;;;5.68;;
51566;SDS011;37657;53.182;5.638;2023-04-30T08:26:18;10.15;;;4.20;;
51566;SDS011;37657;53.182;5.638;2023-04-30T08:28:43;10.60;;;3.58;;
51566;SDS011;37657;53.182;5.638;2023-04-30T08:31:09;7.97;;;3.67;;
51566;SDS011;37657;53.182;5.638;2023-04-30T08:33:36;5.97;;;3.45;;
51566;SDS011;37657;53.182;5.638;2023-04-30T08:36:02;8.50;;;4.40;;
51566;SDS011;37657;53.182;5.638;2023-04-30T08:38:27;7.93;;;4.05;;
51566;SDS011;37657;53.182;5.638;2023-04-30T08:41:03;10.15;;;4.82;;
51566;SDS011;37657;53.182;5.638;2023-04-30T08:43:33;10.88;;;4.57;;
51566;SDS011;37657;53.182;5.638;2023-04-30T08:46:05;7.47;;;3.58;;
51566;SDS011;37657;53.182;5.638;2023-04-30T08:48:31;4.88;;;3.00;;
51566;SDS011;37657;53.182;5.638;2023-04-30T08:51:00;6.97;;;4.25;;
51566;SDS011;37657;53.182;5.638;2023-04-30T08:53:27;6.68;;;3.22;;
51566;SDS011;37657;53.182;5.638;2023-04-30T08:55:54;8.60;;;4.43;;
51566;SDS011;37657;53.182;5.638;2023-04-30T08:58:20;8.05;;;4.20;;
51566;SDS011;37657;53.182;5.638;2023-04-30T09:00:46;7.18;;;3.50;;
51566;SDS011;37657;53.182;5.638;2023-04-30T09:03:11;9.23;;;4.30;;
51566;SDS011;37657;53.182;5.638;2023-04-30T09:05:37;6.03;;;3.22;;
51566;SDS011;37657;53.182;5.638;2023-04-30T09:08:02;11.57;;;3.67;;
51566;SDS011;37657;53.182;5.638;2023-04-30T09:10:31;5.38;;;3.65;;
51566;SDS011;37657;53.182;5.638;2023-04-30T09:12:57;5.53;;;3.58;;
51566;SDS011;37657;53.182;5.638;2023-04-30T09:15:24;6.22;;;3.72;;
51566;SDS011;37657;53.182;5.638;2023-04-30T09:17:50;8.15;;;4.25;;
51566;SDS011;37657;53.182;5.638;2023-04-30T09:20:29;5.80;;;3.47;;
51566;SDS011;37657;53.182;5.638;2023-04-30T09:23:04;4.35;;;2.88;;
51566;SDS011;37657;53.182;5.638;2023-04-30T09:25:37;4.78;;;2.88;;
51566;SDS011;37657;53.182;5.638;2023-04-30T09:28:10;4.60;;;3.45;;
51566;SDS011;37657;53.182;5.638;2023-04-30T09:30:37;6.80;;;3.47;;
51566;SDS011;37657;53.182;5.638;2023-04-30T09:33:06;4.97;;;3.35;;
51566;SDS011;37657;53.182;5.638;2023-04-30T09:35:36;4.25;;;2.90;;
51566;SDS011;37657;53.182;5.638;2023-04-30T09:38:28;6.05;;;3.10;;
51566;SDS011;37657;53.182;5.638;2023-04-30T09:40:56;7.65;;;3.90;;
51566;SDS011;37657;53.182;5.638;2023-04-30T09:43:29;9.98;;;3.90;;
51566;SDS011;37657;53.182;5.638;2023-04-30T09:45:56;6.10;;;3.65;;
51566;SDS011;37657;53.182;5.638;2023-04-30T09:48:23;6.88;;;3.97;;
51566;SDS011;37657;53.182;5.638;2023-04-30T09:50:51;5.88;;;3.50;;
51566;SDS011;37657;53.182;5.638;2023-04-30T09:53:16;7.20;;;3.80;;
51566;SDS011;37657;53.182;5.638;2023-04-30T09:55:44;6.95;;;3.20;;
51566;SDS011;37657;53.182;5.638;2023-04-30T09:58:11;12.00;;;3.72;;
51566;SDS011;37657;53.182;5.638;2023-04-30T10:00:37;7.32;;;3.35;;
51566;SDS011;37657;53.182;5.638;2023-04-30T10:03:09;4.15;;;3.13;;
51566;SDS011;37657;53.182;5.638;2023-04-30T10:05:37;7.28;;;3.92;;
51566;SDS011;37657;53.182;5.638;2023-04-30T10:10:56;4.70;;;3.40;;
51566;SDS011;37657;53.182;5.638;2023-04-30T10:13:24;6.18;;;3.55;;
51566;SDS011;37657;53.182;5.638;2023-04-30T10:15:53;8.05;;;4.30;;
51566;SDS011;37657;53.182;5.638;2023-04-30T10:18:30;6.22;;;3.83;;
51566;SDS011;37657;53.182;5.638;2023-04-30T10:20:58;5.65;;;3.53;;
51566;SDS011;37657;53.182;5.638;2023-04-30T10:23:28;10.57;;;4.45;;
51566;SDS011;37657;53.182;5.638;2023-04-30T10:25:55;4.82;;;3.40;;
51566;SDS011;37657;53.182;5.638;2023-04-30T10:28:22;7.32;;;3.83;;
51566;SDS011;37657;53.182;5.638;2023-04-30T10:30:50;32.50;;;5.18;;
51566;SDS011;37657;53.182;5.638;2023-04-30T10:36:13;7.28;;;4.32;;
51566;SDS011;37657;53.182;5.638;2023-04-30T10:38:46;7.43;;;4.60;;
51566;SDS011;37657;53.182;5.638;2023-04-30T10:41:11;6.70;;;3.70;;
51566;SDS011;37657;53.182;5.638;2023-04-30T10:43:37;7.78;;;4.25;;
51566;SDS011;37657;53.182;5.638;2023-04-30T10:46:03;9.95;;;4.13;;
51566;SDS011;37657;53.182;5.638;2023-04-30T10:48:29;5.85;;;4.10;;
51566;SDS011;37657;53.182;5.638;2023-04-30T10:50:59;7.07;;;3.72;;
51566;SDS011;37657;53.182;5.638;2023-04-30T10:53:25;8.25;;;3.95;;
51566;SDS011;37657;53.182;5.638;2023-04-30T10:56:04;7.63;;;3.35;;
51566;SDS011;37657;53.182;5.638;2023-04-30T10:58:36;8.98;;;4.57;;
51566;SDS011;37657;53.182;5.638;2023-04-30T11:09:41;4.05;;;2.95;;
51566;SDS011;37657;53.182;5.638;2023-04-30T11:12:43;8.35;;;4.07;;
51566;SDS011;37657;53.182;5.638;2023-04-30T11:15:05;4.70;;;3.40;;
51566;SDS011;37657;53.182;5.638;2023-04-30T11:17:41;6.88;;;3.50;;
51566;SDS011;37657;53.182;5.638;2023-04-30T11:20:12;7.85;;;3.75;;
51566;SDS011;37657;53.182;5.638;2023-04-30T11:22:38;6.47;;;3.10;;
51566;SDS011;37657;53.182;5.638;2023-04-30T11:25:05;7.38;;;3.42;;
51566;SDS011;37657;53.182;5.638;2023-04-30T11:27:34;6.75;;;3.55;;
51566;SDS011;37657;53.182;5.638;2023-04-30T11:30:02;6.95;;;4.07;;
51566;SDS011;37657;53.182;5.638;2023-04-30T11:32:34;7.22;;;4.30;;
51566;SDS011;37657;53.182;5.638;2023-04-30T11:35:01;4.75;;;2.80;;
51566;SDS011;37657;53.182;5.638;2023-04-30T11:37:32;5.93;;;3.10;;
51566;SDS011;37657;53.182;5.638;2023-04-30T11:40:01;6.38;;;3.22;;
51566;SDS011;37657;53.182;5.638;2023-04-30T11:42:38;4.15;;;2.97;;
51566;SDS011;37657;53.182;5.638;2023-04-30T11:50:09;3.95;;;2.85;;
51566;SDS011;37657;53.182;5.638;2023-04-30T11:52:36;4.90;;;3.00;;
51566;SDS011;37657;53.182;5.638;2023-04-30T11:55:07;4.88;;;2.67;;
51566;SDS011;37657;53.182;5.638;2023-04-30T11:57:44;4.70;;;2.80;;
51566;SDS011;37657;53.182;5.638;2023-04-30T12:00:12;3.80;;;2.17;;
51566;SDS011;37657;53.182;5.638;2023-04-30T12:02:39;3.50;;;2.38;;
51566;SDS011;37657;53.182;5.638;2023-04-30T12:05:27;4.60;;;2.45;;
51566;SDS011;37657;53.182;5.638;2023-04-30T12:07:59;7.38;;;3.40;;
51566;SDS011;37657;53.182;5.638;2023-04-30T12:10:29;3.13;;;2.22;;
51566;SDS011;37657;53.182;5.638;2023-04-30T12:12:56;9.32;;;3.20;;
51566;SDS011;37657;53.182;5.638;2023-04-30T12:15:22;7.00;;;2.58;;
51566;SDS011;37657;53.182;5.638;2023-04-30T12:17:52;4.15;;;2.40;;
51566;SDS011;37657;53.182;5.638;2023-04-30T12:20:19;2.83;;;2.08;;
51566;SDS011;37657;53.182;5.638;2023-04-30T12:22:46;2.97;;;2.30;;
51566;SDS011;37657;53.182;5.638;2023-04-30T12:25:19;5.65;;;2.33;;
51566;SDS011;37657;53.182;5.638;2023-04-30T12:27:50;4.05;;;2.45;;
51566;SDS011;37657;53.182;5.638;2023-04-30T12:30:21;5.93;;;2.17;;
51566;SDS011;37657;53.182;5.638;2023-04-30T12:32:50;5.05;;;2.63;;
51566;SDS011;37657;53.182;5.638;2023-04-30T12:35:17;5.85;;;3.22;;
51566;SDS011;37657;53.182;5.638;2023-04-30T12:37:52;4.35;;;2.45;;
51566;SDS011;37657;53.182;5.638;2023-04-30T12:40:26;3.15;;;2.20;;
51566;SDS011;37657;53.182;5.638;2023-04-30T12:42:59;6.22;;;2.90;;
51566;SDS011;37657;53.182;5.638;2023-04-30T12:45:42;5.47;;;2.80;;
51566;SDS011;37657;53.182;5.638;2023-04-30T12:48:18;9.10;;;3.05;;
51566;SDS011;37657;53.182;5.638;2023-04-30T12:50:57;3.60;;;2.05;;
51566;SDS011;37657;53.182;5.638;2023-04-30T12:53:25;4.88;;;2.63;;
51566;SDS011;37657;53.182;5.638;2023-04-30T12:56:07;6.78;;;2.80;;
51566;SDS011;37657;53.182;5.638;2023-04-30T12:58:34;4.07;;;2.78;;
51566;SDS011;37657;53.182;5.638;2023-04-30T13:01:00;4.63;;;2.47;;
51566;SDS011;37657;53.182;5.638;2023-04-30T13:03:25;3.60;;;2.28;;
51566;SDS011;37657;53.182;5.638;2023-04-30T13:05:51;3.78;;;2.90;;
51566;SDS011;37657;53.182;5.638;2023-04-30T13:08:17;3.30;;;2.10;;
51566;SDS011;37657;53.182;5.638;2023-04-30T13:10:44;2.97;;;2.10;;
51566;SDS011;37657;53.182;5.638;2023-04-30T13:13:11;4.60;;;1.80;;
51566;SDS011;37657;53.182;5.638;2023-04-30T13:15:37;4.68;;;2.40;;
51566;SDS011;37657;53.182;5.638;2023-04-30T13:18:04;3.80;;;2.55;;
51566;SDS011;37657;53.182;5.638;2023-04-30T13:20:32;2.25;;;1.50;;
51566;SDS011;37657;53.182;5.638;2023-04-30T13:22:58;4.60;;;2.60;;
51566;SDS011;37657;53.182;5.638;2023-04-30T13:25:24;2.42;;;1.88;;
51566;SDS011;37657;53.182;5.638;2023-04-30T13:27:50;3.33;;;2.28;;
51566;SDS011;37657;53.182;5.638;2023-04-30T13:30:15;4.25;;;2.67;;
51566;SDS011;37657;53.182;5.638;2023-04-30T13:32:41;2.42;;;1.40;;
51566;SDS011;37657;53.182;5.638;2023-04-30T13:35:07;3.40;;;2.25;;
51566;SDS011;37657;53.182;5.638;2023-04-30T13:37:33;2.20;;;1.70;;
51566;SDS011;37657;53.182;5.638;2023-04-30T13:39:59;2.50;;;1.67;;
51566;SDS011;37657;53.182;5.638;2023-04-30T13:42:27;1.52;;;1.17;;
51566;SDS011;37657;53.182;5.638;2023-04-30T13:44:53;8.23;;;2.25;;
51566;SDS011;37657;53.182;5.638;2023-04-30T13:47:18;5.43;;;2.28;;
51566;SDS011;37657;53.182;5.638;2023-04-30T13:49:45;5.18;;;2.25;;
51566;SDS011;37657;53.182;5.638;2023-04-30T13:52:11;3.95;;;2.28;;
51566;SDS011;37657;53.182;5.638;2023-04-30T13:54:37;2.78;;;1.95;;
51566;SDS011;37657;53.182;5.638;2023-04-30T13:57:02;2.92;;;1.67;;
51566;SDS011;37657;53.182;5.638;2023-04-30T13:59:29;2.75;;;1.70;;
51566;SDS011;37657;53.182;5.638;2023-04-30T14:01:55;2.85;;;1.85;;
51566;SDS011;37657;53.182;5.638;2023-04-30T14:04:21;3.80;;;1.77;;
51566;SDS011;37657;53.182;5.638;2023-04-30T14:06:47;2.67;;;2.13;;
51566;SDS011;37657;53.182;5.638;2023-04-30T14:09:13;4.65;;;2.42;;
51566;SDS011;37657;53.182;5.638;2023-04-30T14:11:38;4.40;;;2.22;;
51566;SDS011;37657;53.182;5.638;2023-04-30T14:14:05;3.05;;;1.45;;
51566;SDS011;37657;53.182;5.638;2023-04-30T14:16:31;3.17;;;1.70;;
51566;SDS011;37657;53.182;5.638;2023-04-30T14:18:57;3.17;;;1.73;;
51566;SDS011;37657;53.182;5.638;2023-04-30T14:21:22;3.92;;;1.75;;
51566;SDS011;37657;53.182;5.638;2023-04-30T14:23:48;2.47;;;1.58;;
51566;SDS011;37657;53.182;5.638;2023-04-30T14:26:16;3.17;;;2.10;;
51566;SDS011;37657;53.182;5.638;2023-04-30T14:28:41;1.95;;;1.48;;
51566;SDS011;37657;53.182;5.638;2023-04-30T14:31:07;3.92;;;1.90;;
51566;SDS011;37657;53.182;5.638;2023-04-30T14:33:34;2.65;;;1.80;;
51566;SDS011;37657;53.182;5.638;2023-04-30T14:36:00;3.47;;;2.10;;
51566;SDS011;37657;53.182;5.638;2023-04-30T14:38:25;2.92;;;1.88;;
51566;SDS011;37657;53.182;5.638;2023-04-30T14:40:51;4.20;;;1.92;;
51566;SDS011;37657;53.182;5.638;2023-04-30T14:43:16;2.83;;;1.98;;
51566;SDS011;37657;53.182;5.638;2023-04-30T14:45:42;4.50;;;2.55;;
51566;SDS011;37657;53.182;5.638;2023-04-30T14:48:10;3.50;;;2.05;;
51566;SDS011;37657;53.182;5.638;2023-04-30T14:50:36;3.08;;;2.05;;
51566;SDS011;37657;53.182;5.638;2023-04-30T14:53:08;3.22;;;2.15;;
51566;SDS011;37657;53.182;5.638;2023-04-30T14:55:35;4.88;;;2.10;;
51566;SDS011;37657;53.182;5.638;2023-04-30T14:58:01;2.38;;;1.95;;
51566;SDS011;37657;53.182;5.638;2023-04-30T15:00:27;2.20;;;1.75;;
51566;SDS011;37657;53.182;5.638;2023-04-30T15:02:53;2.35;;;1.60;;
51566;SDS011;37657;53.182;5.638;2023-04-30T15:05:19;2.70;;;1.90;;
51566;SDS011;37657;53.182;5.638;2023-04-30T15:07:45;2.83;;;1.92;;
51566;SDS011;37657;53.182;5.638;2023-04-30T15:10:10;3.95;;;2.42;;
51566;SDS011;37657;53.182;5.638;2023-04-30T15:12:36;2.30;;;1.65;;
51566;SDS011;37657;53.182;5.638;2023-04-30T15:15:03;3.30;;;1.70;;
51566;SDS011;37657;53.182;5.638;2023-04-30T15:17:29;3.00;;;2.00;;